首页
METAR-TAF:

METAR-TAF

机场 :

Ingenika Point, 不列颠哥伦比亚, 加拿大

纬度: 56-48N, 经度: 124-54W, 海拔: 680米

METAR: 丢失

时间: 03:16 (11:16 UTC)

预报

该预报发布于11小时和16分钟前的00:00 UTC
预报有效从15日的 00点(UTC)到 16日的 00点(UTC)
风速4节,风向南转南东
能見度: 10公里
天空无云
从 15日的 0600点(UTC)
风速8节,风向
能見度: 10公里
多云层高于2000英尺
阴天层高于10000英尺
成为
从 15日的 10点(UTC)到 15日的 12点(UTC)
天空无云
从 15日的 1700点(UTC)
风速15节,风向东南,有时为25节阵风
能見度: 10公里
散云层高于4000英尺
多云层高于15000英尺

TAF: CWWU 150000Z 1500/1600 16004KT P6SM SKC FM150600 18008KT P6SM BKN020 OVC100 BECMG 1510/1512 SKC FM151700 13015G25KT P6SM SCT040 BKN150 RMK FCST BASED ON AUTO OBS. NXT FCST BY 150600Z

超过4000个机场的气象观测和天气预报(METAR&TAF报告)。

可查询的气象台以黄色和红色小点在地图上表示。

将鼠标移到小点上方,可查看气象台名称。

然后点击查看天气观测和预报。

如需切换地图:点击带黑十字的绿色按钮放大地图;点击带横线的绿色按钮缩小地图;或者点击绿色箭头查看邻近地区的地图。


METAR-TAF: